createdAt,value
2023-01-28T00:01:57.211Z,98574.41
2023-01-28T00:04:25.319Z,98569.47
2023-01-28T00:06:54.027Z,98587.88
2023-01-28T00:09:20.974Z,98566.47
2023-01-28T00:11:47.784Z,98563.75
2023-01-28T00:14:14.771Z,98592.44
2023-01-28T00:16:43.144Z,98589.94
2023-01-28T00:19:09.821Z,98591.16
2023-01-28T00:21:36.693Z,98601.66
2023-01-28T00:24:03.603Z,98604.06
2023-01-28T00:26:30.292Z,98598.03
2023-01-28T00:28:56.896Z,98603.41
2023-01-28T00:31:31.221Z,98606.31
2023-01-28T00:33:58.209Z,98606.31
2023-01-28T00:36:26.759Z,98606.78
2023-01-28T00:38:55.996Z,98611.16
2023-01-28T00:41:24.791Z,98607.63
2023-01-28T00:43:52.075Z,98609.47
2023-01-28T00:46:22.976Z,98611.25
2023-01-28T00:48:49.663Z,98621.59
2023-01-28T00:51:20.177Z,98625.88
2023-01-28T00:53:47.995Z,98615.53
2023-01-28T00:56:17.848Z,98614.31
2023-01-28T00:58:44.934Z,98618.06
2023-01-28T01:01:18.771Z,98623.63
2023-01-28T01:03:46.239Z,98628.66
2023-01-28T01:06:15.191Z,98630.50
2023-01-28T01:08:46.749Z,98638.91
2023-01-28T01:11:13.618Z,98642.44
2023-01-28T01:13:40.433Z,98642.44
2023-01-28T01:16:13.264Z,98640.94
2023-01-28T01:18:42.225Z,98648.84
2023-01-28T01:21:13.777Z,98642.63
2023-01-28T01:23:40.954Z,98639.72
2023-01-28T01:26:07.963Z,98645.22
2023-01-28T01:28:34.764Z,98644.66
2023-01-28T01:31:03.332Z,98660.31
2023-01-28T01:33:30.878Z,98660.69
2023-01-28T01:35:58.003Z,98656.41
2023-01-28T01:38:25.735Z,98661.78
2023-01-28T01:40:52.774Z,98623.50
2023-01-28T01:43:24.019Z,98671.13
2023-01-28T01:45:57.436Z,98668.88
2023-01-28T01:48:34.371Z,98681.16
2023-01-28T01:51:23.408Z,98676.22
2023-01-28T01:53:54.821Z,98673.22
2023-01-28T01:56:26.941Z,98686.72
2023-01-28T01:58:56.279Z,98680.41
2023-01-28T02:01:26.291Z,98674.44
2023-01-28T02:04:09.045Z,98687.84
2023-01-28T02:06:38.055Z,98648.94
2023-01-28T02:09:38.558Z,98700.72
2023-01-28T02:12:18.921Z,98700.13
2023-01-28T02:15:21.713Z,98706.97
2023-01-28T02:17:50.388Z,98696.22
2023-01-28T02:20:25.837Z,98718.38
2023-01-28T02:23:32.100Z,98720.78
2023-01-28T02:25:58.640Z,98717.38
2023-01-28T02:28:39.651Z,98724.53
2023-01-28T02:31:21.555Z,98728.25
2023-01-28T02:33:57.358Z,98734.56
2023-01-28T02:36:34.922Z,98731.03
2023-01-28T02:39:07.937Z,98732.72
2023-01-28T02:41:44.269Z,98728.78
2023-01-28T02:44:11.727Z,98729.16
2023-01-28T02:46:56.948Z,98730.84
2023-01-28T02:49:39.521Z,98726.75
2023-01-28T02:52:16.197Z,98736.81
2023-01-28T02:54:57.828Z,98748.25
2023-01-28T02:57:48.850Z,98751.34
2023-01-28T03:00:44.729Z,98764.56
2023-01-28T03:03:24.933Z,98717.00
2023-01-28T03:06:08.711Z,98766.19
2023-01-28T03:09:04.138Z,98756.97
2023-01-28T03:11:53.753Z,98779.91
2023-01-28T03:14:40.530Z,98787.94
2023-01-28T03:17:34.424Z,98777.69
2023-01-28T03:20:20.086Z,98788.19
2023-01-28T03:23:09.862Z,98791.25
2023-01-28T03:25:57.628Z,98799.91
2023-01-28T03:28:44.101Z,98799.41
2023-01-28T03:31:35.843Z,98805.78
2023-01-28T03:34:23.760Z,98794.41
2023-01-28T03:36:51.660Z,98805.28
2023-01-28T03:39:35.589Z,98792.19
2023-01-28T03:42:03.278Z,98808.22
2023-01-28T03:44:48.675Z,98815.53
2023-01-28T03:47:15.654Z,98822.25
2023-01-28T03:49:49.364Z,98824.53
2023-01-28T03:52:37.186Z,98832.00
2023-01-28T03:55:13.603Z,98831.69
2023-01-28T03:57:40.674Z,98827.22
2023-01-28T04:00:08.247Z,98824.59
2023-01-28T04:02:35.536Z,98829.81
2023-01-28T04:05:07.012Z,98831.84
2023-01-28T04:07:33.864Z,98830.22
2023-01-28T04:10:02.073Z,98829.81
2023-01-28T04:12:36.794Z,98839.44
2023-01-28T04:15:15.695Z,98848.06
2023-01-28T04:17:46.782Z,98845.97
2023-01-28T04:20:13.983Z,98821.59
2023-01-28T04:22:40.883Z,98854.22
2023-01-28T04:25:08.629Z,98858.69
2023-01-28T04:27:36.750Z,98809.53
2023-01-28T04:30:04.043Z,98857.91
2023-01-28T04:32:30.752Z,98857.25
2023-01-28T04:34:57.382Z,98858.44
2023-01-28T04:37:24.172Z,98867.41
2023-01-28T04:39:50.692Z,98874.97
2023-01-28T04:42:17.356Z,98873.69
2023-01-28T04:44:43.959Z,98871.88
2023-01-28T04:47:10.746Z,98885.81
2023-01-28T04:49:37.323Z,98875.38
2023-01-28T04:52:04.099Z,98883.53
2023-01-28T04:54:34.143Z,98877.41
2023-01-28T04:57:04.278Z,98880.94
2023-01-28T04:59:30.783Z,98865.97
2023-01-28T05:01:57.392Z,98847.59
2023-01-28T05:04:24.108Z,98881.72
2023-01-28T05:06:50.768Z,98881.44
2023-01-28T05:09:17.541Z,98890.28
2023-01-28T05:11:44.118Z,98887.66
2023-01-28T05:14:10.779Z,98886.81
2023-01-28T05:16:37.854Z,98886.97
2023-01-28T05:19:06.594Z,98903.63
2023-01-28T05:21:33.240Z,98903.47
2023-01-28T05:23:59.909Z,98908.34
2023-01-28T05:26:26.469Z,98921.28
2023-01-28T05:28:53.111Z,98919.56
2023-01-28T05:31:20.561Z,98905.97
2023-01-28T05:33:53.822Z,98915.31
2023-01-28T05:36:21.665Z,98925.66
2023-01-28T05:38:48.333Z,98919.41
2023-01-28T05:41:15.017Z,98926.31
2023-01-28T05:43:41.593Z,98926.00
2023-01-28T05:46:08.828Z,98924.16
2023-01-28T05:48:35.430Z,98924.97
2023-01-28T05:51:01.997Z,98935.31
2023-01-28T05:53:28.557Z,98934.78
2023-01-28T05:55:55.268Z,98939.50
2023-01-28T05:58:22.317Z,98946.84
2023-01-28T06:00:58.519Z,98946.00
2023-01-28T06:03:25.905Z,98946.06
2023-01-28T06:05:52.382Z,98965.63
2023-01-28T06:08:19.157Z,98965.44
2023-01-28T06:10:46.610Z,98976.72
2023-01-28T06:13:15.502Z,98982.09
2023-01-28T06:15:42.376Z,98986.72
2023-01-28T06:18:09.081Z,98993.06
2023-01-28T06:20:35.765Z,98997.72
2023-01-28T06:23:02.497Z,99000.13
2023-01-28T06:25:29.698Z,99009.38
2023-01-28T06:28:05.411Z,99000.69
2023-01-28T06:30:32.260Z,99017.06
2023-01-28T06:32:59.212Z,99027.47
2023-01-28T06:35:26.032Z,99012.31
2023-01-28T06:37:53.294Z,99034.28
2023-01-28T06:40:21.066Z,99038.53
2023-01-28T06:42:47.696Z,99031.34
2023-01-28T06:45:14.292Z,99036.53
2023-01-28T06:47:41.142Z,99041.41
2023-01-28T06:50:08.126Z,99041.06
2023-01-28T06:52:34.642Z,99043.66
2023-01-28T06:55:02.236Z,99051.22
2023-01-28T06:57:29.517Z,99060.28
2023-01-28T06:59:56.264Z,99064.59
2023-01-28T07:02:22.890Z,99076.66
2023-01-28T07:04:49.669Z,99057.31
2023-01-28T07:07:16.399Z,99075.31
2023-01-28T07:09:42.824Z,99082.19
2023-01-28T07:12:09.508Z,99084.56
2023-01-28T07:14:36.201Z,99088.78
2023-01-28T07:17:02.851Z,99087.09
2023-01-28T07:19:30.473Z,99051.34
2023-01-28T07:22:03.716Z,99098.75
2023-01-28T07:24:31.729Z,99091.22
2023-01-28T07:26:59.083Z,99091.22
2023-01-28T07:29:25.611Z,99116.13
2023-01-28T07:31:52.299Z,99129.13
2023-01-28T07:34:18.801Z,99127.38
2023-01-28T07:36:45.490Z,99124.63
2023-01-28T07:39:11.988Z,99125.69
2023-01-28T07:41:38.772Z,99122.19
2023-01-28T07:44:05.618Z,99132.44
2023-01-28T07:46:34.335Z,99139.19
2023-01-28T07:49:01.393Z,99140.16
2023-01-28T07:51:28.224Z,99122.78
2023-01-28T07:53:55.033Z,99150.81
2023-01-28T07:56:21.707Z,99150.06
2023-01-28T07:58:50.686Z,99134.44
2023-01-28T08:01:19.954Z,99150.44
2023-01-28T08:03:46.648Z,99152.44
2023-01-28T08:06:13.481Z,99159.78
2023-01-28T08:08:40.539Z,99152.81
2023-01-28T08:11:08.994Z,99156.34
2023-01-28T08:13:35.755Z,99168.13
2023-01-28T08:16:02.883Z,99159.09
2023-01-28T08:18:29.459Z,99171.78
2023-01-28T08:20:57.346Z,99123.47
2023-01-28T08:23:24.600Z,99176.34
2023-01-28T08:25:51.238Z,99172.88
2023-01-28T08:28:26.247Z,99183.53
2023-01-28T08:30:53.381Z,99174.72
2023-01-28T08:33:20.414Z,99179.56
2023-01-28T08:35:47.180Z,99185.59
2023-01-28T08:38:15.525Z,99185.31
2023-01-28T08:40:42.274Z,99197.44
2023-01-28T08:43:09.635Z,99192.91
2023-01-28T08:45:36.088Z,99199.38
2023-01-28T08:48:05.704Z,99210.44
2023-01-28T08:50:35.174Z,99202.00
2023-01-28T08:53:04.895Z,99209.38
2023-01-28T08:55:32.209Z,99168.91
2023-01-28T08:58:03.035Z,99225.78
2023-01-28T09:00:29.868Z,99227.91
2023-01-28T09:02:56.631Z,99226.56
2023-01-28T09:05:23.432Z,99229.81
2023-01-28T09:07:51.087Z,99231.44
2023-01-28T09:10:24.481Z,99242.81
2023-01-28T09:12:51.042Z,99247.41
2023-01-28T09:15:17.979Z,99252.66
2023-01-28T09:17:44.712Z,99255.22
2023-01-28T09:20:13.111Z,99249.81
2023-01-28T09:22:40.388Z,99261.50
2023-01-28T09:25:07.866Z,99272.81
2023-01-28T09:27:34.452Z,99265.31
2023-01-28T09:30:01.061Z,99250.31
2023-01-28T09:32:27.604Z,99271.38
2023-01-28T09:34:54.135Z,99275.81
2023-01-28T09:37:21.859Z,99277.66
2023-01-28T09:39:48.366Z,99280.38
2023-01-28T09:42:17.944Z,99278.38
2023-01-28T09:45:09.478Z,99281.56
2023-01-28T09:47:43.220Z,99299.47
2023-01-28T09:50:17.949Z,99299.34
2023-01-28T09:52:45.685Z,99293.09
2023-01-28T09:55:30.377Z,99312.31
2023-01-28T09:57:57.552Z,99313.41
2023-01-28T10:00:30.202Z,99317.88
2023-01-28T10:03:24.680Z,99312.31
2023-01-28T10:06:14.549Z,99324.38
2023-01-28T10:09:14.462Z,99326.22
2023-01-28T10:12:08.891Z,99329.09
2023-01-28T10:15:09.644Z,99329.88
2023-01-28T10:17:46.738Z,99338.50
2023-01-28T10:20:14.291Z,99344.47
2023-01-28T10:23:16.171Z,99324.22
2023-01-28T10:25:48.304Z,99334.94
2023-01-28T10:28:43.786Z,99342.41
2023-01-28T10:31:14.529Z,99337.09
2023-01-28T10:33:41.083Z,99340.34
2023-01-28T10:36:10.005Z,99329.88
2023-01-28T10:38:36.647Z,99345.97
2023-01-28T10:41:06.773Z,99352.59
2023-01-28T10:43:45.652Z,99349.38
2023-01-28T10:46:16.827Z,99348.94
2023-01-28T10:48:48.819Z,99354.84
2023-01-28T10:51:15.540Z,99344.13
2023-01-28T10:53:46.353Z,99359.00
2023-01-28T10:56:26.574Z,99359.25
2023-01-28T10:59:18.127Z,99363.53
2023-01-28T11:01:53.690Z,99358.72
2023-01-28T11:04:26.587Z,99362.09
2023-01-28T11:07:01.797Z,99332.63
2023-01-28T11:09:35.762Z,99371.00
2023-01-28T11:12:22.257Z,99365.06
2023-01-28T11:14:55.493Z,99364.75
2023-01-28T11:17:27.418Z,99372.94
2023-01-28T11:19:56.373Z,99350.09
2023-01-28T11:22:46.650Z,99371.56
2023-01-28T11:25:22.263Z,99364.69
2023-01-28T11:27:51.799Z,99347.22
2023-01-28T11:30:21.870Z,99366.47
2023-01-28T11:32:56.436Z,99361.91
2023-01-28T11:35:31.007Z,99353.78
2023-01-28T11:37:59.248Z,99352.94
2023-01-28T11:40:27.307Z,99360.66
2023-01-28T11:42:58.746Z,99364.41
2023-01-28T11:45:44.031Z,99359.72
2023-01-28T11:48:13.575Z,99367.25
2023-01-28T11:50:48.774Z,99376.25
2023-01-28T11:53:40.441Z,99339.16
2023-01-28T11:56:30.276Z,99371.44
2023-01-28T11:59:06.214Z,99360.88
2023-01-28T12:02:07.131Z,99341.47
2023-01-28T12:05:01.159Z,99372.53
2023-01-28T12:07:28.061Z,99363.75
2023-01-28T12:10:38.542Z,99372.53
2023-01-28T12:13:16.156Z,99371.00
2023-01-28T12:15:57.526Z,99360.91
2023-01-28T12:18:43.479Z,99363.28
2023-01-28T12:21:47.663Z,99351.97
2023-01-28T12:24:47.547Z,99336.38
2023-01-28T12:27:25.823Z,99341.03
2023-01-28T12:30:24.328Z,99341.59
2023-01-28T12:33:17.253Z,99338.09
2023-01-28T12:36:16.339Z,99352.75
2023-01-28T12:38:54.316Z,99359.22
2023-01-28T12:41:28.757Z,99361.50
2023-01-28T12:44:08.390Z,99352.59
2023-01-28T12:46:55.831Z,99364.78
2023-01-28T12:49:47.031Z,99371.47
2023-01-28T12:52:17.072Z,99367.09
2023-01-28T12:54:58.057Z,99370.09
2023-01-28T12:57:30.040Z,99373.56
2023-01-28T13:00:07.719Z,99374.03
2023-01-28T13:02:42.769Z,99374.56
2023-01-28T13:05:17.998Z,99386.22
2023-01-28T13:07:53.693Z,99373.84
2023-01-28T13:10:42.477Z,99374.34
2023-01-28T13:13:18.790Z,99389.69
2023-01-28T13:15:46.926Z,99397.16
2023-01-28T13:18:31.280Z,99403.16
2023-01-28T13:20:58.429Z,99403.84
2023-01-28T13:23:37.608Z,99406.31
2023-01-28T13:26:19.359Z,99419.34
2023-01-28T13:28:47.325Z,99415.34
2023-01-28T13:31:19.412Z,99425.94
2023-01-28T13:34:02.219Z,99425.03
2023-01-28T13:36:33.102Z,99423.28
2023-01-28T13:39:08.733Z,99416.00
2023-01-28T13:41:48.647Z,99409.75
2023-01-28T13:44:33.556Z,99411.13
2023-01-28T13:47:10.590Z,99404.28
2023-01-28T13:49:57.730Z,99399.00
2023-01-28T13:52:32.677Z,99404.13
2023-01-28T13:55:04.177Z,99401.72
2023-01-28T13:58:09.660Z,99399.63
2023-01-28T14:00:52.177Z,99378.78
2023-01-28T14:03:23.921Z,99386.25
2023-01-28T14:06:28.067Z,99390.31
2023-01-28T14:09:04.911Z,99399.06
2023-01-28T14:11:59.670Z,99404.84
2023-01-28T14:15:00.676Z,99384.84
2023-01-28T14:17:48.896Z,99387.19
2023-01-28T14:20:27.532Z,99396.09
2023-01-28T14:23:04.734Z,99406.50
2023-01-28T14:26:02.182Z,99408.75
2023-01-28T14:28:57.211Z,99399.19
2023-01-28T14:31:37.729Z,99400.94
2023-01-28T14:34:31.519Z,99410.38
2023-01-28T14:37:05.443Z,99407.31
2023-01-28T14:39:53.685Z,99420.88
2023-01-28T14:42:23.864Z,99404.91
2023-01-28T14:45:06.817Z,99390.03
2023-01-28T14:48:06.370Z,99402.81
2023-01-28T14:51:05.696Z,99408.06
2023-01-28T14:53:48.348Z,99376.63
2023-01-28T14:56:42.007Z,99389.59
2023-01-28T14:59:28.662Z,99394.94
2023-01-28T15:01:58.472Z,99390.31
2023-01-28T15:04:28.629Z,99393.25
2023-01-28T15:06:56.401Z,99389.31
2023-01-28T15:09:23.858Z,99390.72
2023-01-28T15:11:56.318Z,99393.53
2023-01-28T15:14:30.451Z,99405.78
2023-01-28T15:16:58.091Z,99416.16
2023-01-28T15:19:35.373Z,99428.63
2023-01-28T15:22:05.709Z,99429.81
2023-01-28T15:24:38.937Z,99449.41
2023-01-28T15:27:05.657Z,99426.63
2023-01-28T15:29:37.679Z,99432.66
2023-01-28T15:32:05.516Z,99424.84
2023-01-28T15:34:32.685Z,99439.81
2023-01-28T15:37:00.806Z,99418.38
2023-01-28T15:39:29.230Z,99450.72
2023-01-28T15:42:03.388Z,99458.53
2023-01-28T15:44:45.915Z,99440.53
2023-01-28T15:47:33.331Z,99447.59
2023-01-28T15:50:05.424Z,99464.63
2023-01-28T15:52:43.415Z,99466.56
2023-01-28T15:55:29.894Z,99462.69
2023-01-28T15:57:56.679Z,99454.69
2023-01-28T16:00:25.713Z,99467.13
2023-01-28T16:02:56.561Z,99473.13
2023-01-28T16:05:31.672Z,99457.88
2023-01-28T16:07:59.156Z,99451.00
2023-01-28T16:10:28.714Z,99459.69
2023-01-28T16:13:27.292Z,99468.19
2023-01-28T16:15:56.767Z,99467.78
2023-01-28T16:18:40.811Z,99468.09
2023-01-28T16:21:19.507Z,99482.13
2023-01-28T16:23:53.287Z,99477.38
2023-01-28T16:26:23.672Z,99484.84
2023-01-28T16:28:51.363Z,99486.91
2023-01-28T16:31:19.195Z,99478.06
2023-01-28T16:33:46.532Z,99487.31
2023-01-28T16:36:14.890Z,99504.06
2023-01-28T16:38:42.888Z,99491.81
2023-01-28T16:41:15.586Z,99477.19
2023-01-28T16:43:42.325Z,99489.44
2023-01-28T16:46:12.268Z,99485.16
2023-01-28T16:48:39.232Z,99483.72
2023-01-28T16:51:15.477Z,99493.13
2023-01-28T16:53:43.758Z,99489.19
2023-01-28T16:56:35.925Z,99485.31
2023-01-28T16:59:05.259Z,99491.28
2023-01-28T17:01:32.600Z,99469.00
2023-01-28T17:04:00.061Z,99479.03
2023-01-28T17:06:26.774Z,99490.63
2023-01-28T17:08:53.521Z,99496.69
2023-01-28T17:11:20.204Z,99496.19
2023-01-28T17:13:46.838Z,99516.41
2023-01-28T17:16:13.659Z,99515.56
2023-01-28T17:18:40.989Z,99504.53
2023-01-28T17:21:11.528Z,99488.59
2023-01-28T17:23:42.763Z,99516.94
2023-01-28T17:26:12.949Z,99515.91
2023-01-28T17:28:41.071Z,99527.78
2023-01-28T17:31:13.953Z,99522.16
2023-01-28T17:33:41.886Z,99532.59
2023-01-28T17:36:12.845Z,99528.78
2023-01-28T17:38:39.735Z,99531.03
2023-01-28T17:41:08.837Z,99545.28
2023-01-28T17:43:35.654Z,99554.16
2023-01-28T17:46:10.972Z,99504.59
2023-01-28T17:48:37.878Z,99557.03
2023-01-28T17:51:04.899Z,99573.34
2023-01-28T17:53:31.558Z,99566.94
2023-01-28T17:55:58.138Z,99571.31
2023-01-28T17:58:24.782Z,99581.22
2023-01-28T18:00:51.629Z,99598.84
2023-01-28T18:03:18.358Z,99597.94
2023-01-28T18:05:45.051Z,99584.47
2023-01-28T18:08:12.302Z,99594.78
2023-01-28T18:10:43.313Z,99620.09
2023-01-28T18:13:10.072Z,99630.31
2023-01-28T18:15:37.073Z,99631.91
2023-01-28T18:18:03.998Z,99590.50
2023-01-28T18:20:30.654Z,99649.00
2023-01-28T18:22:57.481Z,99624.75
2023-01-28T18:25:24.081Z,99653.97
2023-01-28T18:27:52.565Z,99652.09
2023-01-28T18:30:22.251Z,99654.72
2023-01-28T18:32:48.983Z,99644.28
2023-01-28T18:35:16.155Z,99641.63
2023-01-28T18:37:43.449Z,99608.47
2023-01-28T18:40:11.263Z,99643.44
2023-01-28T18:42:38.100Z,99640.44
2023-01-28T18:45:06.368Z,99649.03
2023-01-28T18:47:33.779Z,99638.53
2023-01-28T18:50:00.674Z,99619.88
2023-01-28T18:52:27.860Z,99582.63
2023-01-28T18:54:54.533Z,99629.09
2023-01-28T18:57:21.816Z,99635.06
2023-01-28T18:59:48.528Z,99622.94
2023-01-28T19:02:16.511Z,99630.25
2023-01-28T19:04:43.380Z,99627.56
2023-01-28T19:07:11.760Z,99617.38
2023-01-28T19:09:38.948Z,99614.38
2023-01-28T19:12:06.257Z,99579.13
2023-01-28T19:14:33.379Z,99549.06
2023-01-28T19:17:00.271Z,99624.19
2023-01-28T19:19:27.013Z,99636.19
2023-01-28T19:21:54.000Z,99635.78
2023-01-28T19:24:20.875Z,99630.28
2023-01-28T19:26:47.558Z,99620.88
2023-01-28T19:29:16.389Z,99608.56
2023-01-28T19:31:44.604Z,99599.97
2023-01-28T19:34:11.623Z,99618.41
2023-01-28T19:36:38.833Z,99619.09
2023-01-28T19:39:11.976Z,99617.81
2023-01-28T19:41:39.546Z,99641.75
2023-01-28T19:44:07.247Z,99614.91
2023-01-28T19:46:36.336Z,99621.00
2023-01-28T19:49:04.270Z,99620.44
2023-01-28T19:51:40.018Z,99604.47
2023-01-28T19:54:14.414Z,99617.06
2023-01-28T19:56:41.255Z,99607.19
2023-01-28T19:59:08.245Z,99608.88
2023-01-28T20:01:36.147Z,99610.03
2023-01-28T20:04:04.932Z,99601.31
2023-01-28T20:06:38.079Z,99597.94
2023-01-28T20:09:16.460Z,99586.50
2023-01-28T20:11:43.515Z,99563.28
2023-01-28T20:14:10.515Z,99584.97
2023-01-28T20:16:37.473Z,99613.81
2023-01-28T20:19:06.519Z,99622.25
2023-01-28T20:21:35.657Z,99611.22
2023-01-28T20:24:03.424Z,99610.38
2023-01-28T20:26:33.344Z,99628.41
2023-01-28T20:29:02.657Z,99636.50
2023-01-28T20:31:29.807Z,99634.22
2023-01-28T20:33:56.716Z,99639.66
2023-01-28T20:36:23.566Z,99650.31
2023-01-28T20:38:50.760Z,99647.63
2023-01-28T20:41:23.457Z,99628.97
2023-01-28T20:43:52.987Z,99642.91
2023-01-28T20:46:22.461Z,99633.09
2023-01-28T20:48:50.144Z,99605.19
2023-01-28T20:51:26.423Z,99609.72
2023-01-28T20:53:57.136Z,99641.81
2023-01-28T20:56:26.140Z,99641.03
2023-01-28T20:58:59.372Z,99635.50
2023-01-28T21:01:30.974Z,99637.06
2023-01-28T21:03:57.801Z,99629.28
2023-01-28T21:06:33.885Z,99633.16
2023-01-28T21:09:00.596Z,99643.06
2023-01-28T21:11:27.582Z,99624.41
2023-01-28T21:13:54.630Z,99655.72
2023-01-28T21:16:22.301Z,99653.56
2023-01-28T21:18:51.870Z,99650.44
2023-01-28T21:21:22.677Z,99603.03
2023-01-28T21:23:50.414Z,99645.84
2023-01-28T21:26:18.311Z,99640.78
2023-01-28T21:28:49.200Z,99645.47
2023-01-28T21:31:18.719Z,99644.97
2023-01-28T21:33:53.484Z,99603.47
2023-01-28T21:36:20.977Z,99624.34
2023-01-28T21:39:00.992Z,99653.59
2023-01-28T21:41:28.031Z,99653.16
2023-01-28T21:43:56.098Z,99654.66
2023-01-28T21:46:28.516Z,99657.72
2023-01-28T21:49:00.937Z,99659.63
2023-01-28T21:51:40.913Z,99659.31
2023-01-28T21:54:11.974Z,99655.91
2023-01-28T21:56:39.154Z,99658.78
2023-01-28T21:59:24.634Z,99649.19
2023-01-28T22:01:51.358Z,99642.66
2023-01-28T22:04:18.277Z,99641.19
2023-01-28T22:06:45.486Z,99651.56
2023-01-28T22:09:14.140Z,99653.41
2023-01-28T22:11:42.590Z,99663.88
2023-01-28T22:14:10.473Z,99641.28
2023-01-28T22:16:37.455Z,99660.75
2023-01-28T22:19:04.831Z,99648.19
2023-01-28T22:21:32.952Z,99658.69
2023-01-28T22:23:59.706Z,99659.47
2023-01-28T22:26:26.501Z,99654.13
2023-01-28T22:28:54.024Z,99652.66
2023-01-28T22:31:20.924Z,99656.72
2023-01-28T22:33:48.173Z,99653.75
2023-01-28T22:36:16.138Z,99661.63
2023-01-28T22:38:44.740Z,99667.78
2023-01-28T22:41:19.909Z,99664.47
2023-01-28T22:43:47.203Z,99648.03
2023-01-28T22:46:16.361Z,99626.97
2023-01-28T22:48:44.760Z,99675.00
2023-01-28T22:51:20.057Z,99644.78
2023-01-28T22:53:47.784Z,99674.16
2023-01-28T22:56:15.877Z,99675.78
2023-01-28T22:58:42.705Z,99670.25
2023-01-28T23:01:09.336Z,99666.09
2023-01-28T23:03:40.271Z,99672.34
2023-01-28T23:06:08.270Z,99665.06
2023-01-28T23:08:34.758Z,99668.53
2023-01-28T23:11:03.055Z,99663.34
2023-01-28T23:13:49.974Z,99677.50
2023-01-28T23:16:35.472Z,99646.38
2023-01-28T23:19:20.665Z,99669.03
2023-01-28T23:22:06.239Z,99669.75
2023-01-28T23:24:33.423Z,99664.91
2023-01-28T23:27:03.042Z,99657.34
2023-01-28T23:29:31.858Z,99654.19
2023-01-28T23:32:05.660Z,99662.16
2023-01-28T23:34:38.422Z,99667.31
2023-01-28T23:37:07.479Z,99672.03
2023-01-28T23:39:34.614Z,99671.84
2023-01-28T23:42:20.730Z,99664.59
2023-01-28T23:44:47.889Z,99675.84
2023-01-28T23:47:14.974Z,99667.72
2023-01-28T23:49:41.590Z,99678.34
2023-01-28T23:52:08.472Z,99682.25
2023-01-28T23:54:35.460Z,99682.44
2023-01-28T23:57:02.711Z,99682.44
2023-01-28T23:59:29.147Z,99680.09
